createdAt,value
2022-12-13T00:01:47.796Z,6.20
2022-12-13T00:04:15.034Z,5.47
2022-12-13T00:06:42.216Z,5.70
2022-12-13T00:09:10.804Z,6.57
2022-12-13T00:11:37.581Z,6.20
2022-12-13T00:14:04.343Z,6.13
2022-12-13T00:16:31.176Z,5.85
2022-12-13T00:18:59.910Z,6.45
2022-12-13T00:21:29.860Z,5.82
2022-12-13T00:23:58.747Z,6.57
2022-12-13T00:26:32.535Z,7.00
2022-12-13T00:29:01.360Z,5.85
2022-12-13T00:34:19.830Z,5.85
2022-12-13T00:36:46.852Z,6.80
2022-12-13T00:39:14.355Z,6.72
2022-12-13T00:41:41.981Z,6.60
2022-12-13T00:44:11.440Z,6.25
2022-12-13T00:46:39.547Z,6.70
2022-12-13T00:49:06.963Z,6.90
2022-12-13T00:51:34.507Z,6.85
2022-12-13T00:54:01.795Z,6.40
2022-12-13T00:56:30.799Z,7.35
2022-12-13T00:58:58.140Z,6.78
2022-12-13T01:01:28.987Z,6.53
2022-12-13T01:03:59.222Z,7.43
2022-12-13T01:06:43.529Z,7.68
2022-12-13T01:09:20.376Z,7.90
2022-12-13T01:11:48.339Z,7.78
2022-12-13T01:14:16.589Z,7.55
2022-12-13T01:16:43.280Z,6.35
2022-12-13T01:19:10.022Z,7.30
2022-12-13T01:21:36.775Z,7.78
2022-12-13T01:24:05.665Z,7.75
2022-12-13T01:26:33.238Z,8.32
2022-12-13T01:29:00.222Z,8.05
2022-12-13T01:31:27.515Z,7.47
2022-12-13T01:33:54.162Z,7.22
2022-12-13T01:36:27.816Z,7.50
2022-12-13T01:38:59.223Z,8.15
2022-12-13T01:41:28.462Z,9.27
2022-12-13T01:44:03.154Z,7.90
2022-12-13T01:46:32.139Z,8.75
2022-12-13T01:49:20.573Z,8.75
2022-12-13T01:51:59.398Z,7.70
2022-12-13T01:54:33.427Z,7.57
2022-12-13T01:57:04.543Z,7.85
2022-12-13T01:59:32.433Z,7.32
2022-12-13T02:02:00.674Z,8.75
2022-12-13T02:04:34.439Z,7.78
2022-12-13T02:07:01.727Z,7.13
2022-12-13T02:09:29.119Z,7.35
2022-12-13T02:11:56.012Z,7.38
2022-12-13T02:14:22.722Z,8.50
2022-12-13T02:17:11.178Z,7.97
2022-12-13T02:20:23.146Z,7.38
2022-12-13T02:23:21.203Z,7.82
2022-12-13T02:26:16.782Z,8.00
2022-12-13T02:28:57.772Z,7.75
2022-12-13T02:31:43.081Z,8.77
2022-12-13T02:34:25.179Z,7.85
2022-12-13T02:37:17.924Z,8.57
2022-12-13T02:39:51.392Z,8.93
2022-12-13T02:42:37.963Z,9.18
2022-12-13T02:45:20.325Z,8.50
2022-12-13T02:47:49.809Z,8.38
2022-12-13T02:50:17.150Z,8.90
2022-12-13T02:52:46.775Z,9.43
2022-12-13T02:55:15.852Z,10.07
2022-12-13T02:57:45.590Z,9.50
2022-12-13T03:00:18.496Z,9.18
2022-12-13T03:03:42.172Z,10.32
2022-12-13T03:06:33.514Z,11.90
2022-12-13T03:09:24.692Z,10.25
2022-12-13T03:12:18.954Z,10.40
2022-12-13T03:15:10.172Z,10.38
2022-12-13T03:17:52.740Z,10.93
2022-12-13T03:20:24.595Z,10.13
2022-12-13T03:22:53.212Z,11.20
2022-12-13T03:25:31.242Z,10.98
2022-12-13T03:28:02.517Z,11.25
2022-12-13T03:30:31.413Z,10.73
2022-12-13T03:32:58.166Z,8.82
2022-12-13T03:35:25.319Z,11.30
2022-12-13T03:38:02.311Z,10.52
2022-12-13T03:40:30.356Z,10.20
2022-12-13T03:42:57.160Z,10.50
2022-12-13T03:45:24.150Z,10.68
2022-12-13T03:47:50.849Z,9.95
2022-12-13T03:50:26.827Z,9.73
2022-12-13T03:53:01.653Z,9.77
2022-12-13T03:55:29.119Z,9.90
2022-12-13T03:57:56.353Z,10.20
2022-12-13T04:00:23.198Z,12.75
2022-12-13T04:02:50.251Z,10.57
2022-12-13T04:05:18.103Z,10.63
2022-12-13T04:07:48.124Z,10.98
2022-12-13T04:10:25.532Z,11.57
2022-12-13T04:13:12.950Z,11.32
2022-12-13T04:15:40.320Z,10.63
2022-12-13T04:18:07.248Z,11.32
2022-12-13T04:20:33.903Z,10.85
2022-12-13T04:23:01.073Z,11.52
2022-12-13T04:25:38.395Z,11.35
2022-12-13T04:28:05.631Z,10.95
2022-12-13T04:30:32.390Z,11.55
2022-12-13T04:32:59.304Z,11.90
2022-12-13T04:35:27.702Z,11.65
2022-12-13T04:37:57.255Z,11.15
2022-12-13T04:40:24.097Z,11.02
2022-12-13T04:42:53.959Z,10.68
2022-12-13T04:45:23.008Z,10.70
2022-12-13T04:47:50.406Z,10.82
2022-12-13T04:50:17.267Z,11.68
2022-12-13T04:52:45.057Z,13.13
2022-12-13T04:55:12.074Z,14.38
2022-12-13T04:57:39.834Z,12.05
2022-12-13T05:00:10.073Z,13.20
2022-12-13T05:02:37.352Z,12.38
2022-12-13T05:05:04.147Z,11.98
2022-12-13T05:07:30.827Z,11.73
2022-12-13T05:09:57.744Z,10.60
2022-12-13T05:12:24.976Z,11.60
2022-12-13T05:14:52.745Z,11.85
2022-12-13T05:17:21.010Z,12.13
2022-12-13T05:19:47.793Z,11.38
2022-12-13T05:22:20.394Z,12.23
2022-12-13T05:24:48.181Z,10.95
2022-12-13T05:27:25.441Z,12.07
2022-12-13T05:30:02.727Z,10.70
2022-12-13T05:32:43.675Z,11.30
2022-12-13T05:35:22.544Z,11.13
2022-12-13T05:37:55.083Z,10.93
2022-12-13T05:40:31.583Z,11.70
2022-12-13T05:43:00.742Z,11.73
2022-12-13T05:45:28.723Z,12.57
2022-12-13T05:47:55.425Z,13.30
2022-12-13T05:50:21.986Z,13.32
2022-12-13T05:52:48.817Z,13.88
2022-12-13T05:55:15.865Z,12.77
2022-12-13T05:57:42.816Z,12.63
2022-12-13T06:00:30.167Z,12.30
2022-12-13T06:03:00.813Z,13.52
2022-12-13T06:05:31.796Z,13.93
2022-12-13T06:07:59.179Z,13.63
2022-12-13T06:10:34.368Z,14.00
2022-12-13T06:13:06.704Z,14.30
2022-12-13T06:15:49.259Z,14.02
2022-12-13T06:18:15.979Z,13.55
2022-12-13T06:20:42.668Z,14.15
2022-12-13T06:23:09.408Z,14.63
2022-12-13T06:25:39.075Z,14.10
2022-12-13T06:28:06.036Z,14.23
2022-12-13T06:30:32.809Z,13.50
2022-12-13T06:32:59.655Z,14.32
2022-12-13T06:35:27.982Z,15.38
2022-12-13T06:37:55.952Z,12.68
2022-12-13T06:40:28.718Z,15.60
2022-12-13T06:42:55.331Z,12.40
2022-12-13T06:45:22.357Z,13.23
2022-12-13T06:47:48.991Z,13.38
2022-12-13T06:50:15.808Z,13.20
2022-12-13T06:52:42.497Z,12.40
2022-12-13T06:55:09.825Z,13.77
2022-12-13T06:57:37.056Z,14.13
2022-12-13T07:00:05.498Z,13.45
2022-12-13T07:02:32.925Z,11.95
2022-12-13T07:04:59.674Z,11.75
2022-12-13T07:07:26.445Z,11.52
2022-12-13T07:09:53.794Z,12.90
2022-12-13T07:12:21.111Z,13.13
2022-12-13T07:14:49.280Z,13.25
2022-12-13T07:17:33.256Z,12.40
2022-12-13T07:20:02.550Z,13.32
2022-12-13T07:22:29.627Z,14.68
2022-12-13T07:25:03.630Z,14.15
2022-12-13T07:27:30.646Z,17.08
2022-12-13T07:29:58.038Z,19.17
2022-12-13T07:32:25.038Z,22.38
2022-12-13T07:34:51.758Z,23.23
2022-12-13T07:37:30.549Z,23.48
2022-12-13T07:40:03.801Z,22.75
2022-12-13T07:42:31.634Z,18.17
2022-12-13T07:44:58.323Z,18.42
2022-12-13T07:47:30.345Z,18.60
2022-12-13T07:49:57.683Z,16.63
2022-12-13T07:52:24.687Z,15.77
2022-12-13T07:54:51.337Z,15.25
2022-12-13T07:57:18.095Z,16.52
2022-12-13T07:59:44.816Z,16.42
2022-12-13T08:02:13.785Z,16.02
2022-12-13T08:04:43.018Z,14.77
2022-12-13T08:07:10.689Z,14.40
2022-12-13T08:09:38.093Z,15.32
2022-12-13T08:12:05.807Z,13.98
2022-12-13T08:14:33.091Z,15.93
2022-12-13T08:16:59.753Z,14.55
2022-12-13T08:19:26.718Z,14.88
2022-12-13T08:21:55.537Z,12.70
2022-12-13T08:24:32.264Z,13.43
2022-12-13T08:27:02.286Z,12.70
2022-12-13T08:29:35.785Z,14.27
2022-12-13T08:32:08.587Z,13.23
2022-12-13T08:34:35.759Z,13.23
2022-12-13T08:37:03.865Z,13.25
2022-12-13T08:39:36.690Z,12.88
2022-12-13T08:42:14.761Z,12.60
2022-12-13T08:44:44.572Z,12.07
2022-12-13T08:47:11.418Z,11.77
2022-12-13T08:49:38.415Z,10.48
2022-12-13T08:52:05.063Z,10.35
2022-12-13T08:54:34.255Z,11.23
2022-12-13T08:57:01.014Z,10.48
2022-12-13T08:59:27.852Z,10.52
2022-12-13T09:01:57.640Z,8.73
2022-12-13T09:07:01.638Z,10.75
2022-12-13T09:09:29.632Z,8.73
2022-12-13T09:11:59.570Z,8.82
2022-12-13T09:14:33.629Z,8.98
2022-12-13T09:17:02.741Z,8.98
2022-12-13T09:19:37.521Z,8.55
2022-12-13T09:22:05.376Z,7.45
2022-12-13T09:24:35.739Z,7.90
2022-12-13T09:27:02.691Z,7.13
2022-12-13T09:29:37.594Z,6.95
2022-12-13T09:32:04.484Z,7.22
2022-12-13T09:34:33.206Z,8.00
2022-12-13T09:37:01.210Z,7.18
2022-12-13T09:39:28.635Z,6.65
2022-12-13T09:42:01.086Z,6.30
2022-12-13T09:44:42.720Z,5.95
2022-12-13T09:47:23.691Z,6.55
2022-12-13T09:49:53.184Z,7.10
2022-12-13T09:52:23.906Z,7.25
2022-12-13T09:54:54.924Z,7.93
2022-12-13T09:57:33.798Z,6.40
2022-12-13T10:00:12.863Z,7.47
2022-12-13T10:02:53.253Z,7.65
2022-12-13T10:05:22.269Z,9.20
2022-12-13T10:07:54.238Z,8.32
2022-12-13T10:10:21.214Z,8.50
2022-12-13T10:12:55.807Z,9.40
2022-12-13T10:15:24.489Z,8.82
2022-12-13T10:17:55.315Z,8.57
2022-12-13T10:20:26.341Z,8.63
2022-12-13T10:23:29.986Z,8.05
2022-12-13T10:25:51.068Z,9.02
2022-12-13T10:28:24.969Z,9.32
2022-12-13T10:30:51.663Z,9.02
2022-12-13T10:33:33.900Z,9.07
2022-12-13T10:36:07.444Z,7.82
2022-12-13T10:39:00.431Z,8.15
2022-12-13T10:41:40.177Z,8.57
2022-12-13T10:44:22.591Z,8.00
2022-12-13T10:49:23.055Z,7.55
2022-12-13T10:51:52.019Z,5.28
2022-12-13T10:54:28.962Z,5.82
2022-12-13T10:57:05.795Z,5.65
2022-12-13T10:59:34.545Z,5.80
2022-12-13T11:02:20.548Z,6.18
2022-12-13T11:04:47.337Z,5.30
2022-12-13T11:07:32.297Z,5.72
2022-12-13T11:10:17.947Z,5.28
2022-12-13T11:12:47.464Z,5.40
2022-12-13T11:15:25.171Z,6.03
2022-12-13T11:17:59.469Z,6.00
2022-12-13T11:20:34.466Z,5.53
2022-12-13T11:23:25.856Z,5.18
2022-12-13T11:25:59.920Z,6.25
2022-12-13T11:28:44.027Z,6.55
2022-12-13T11:31:50.405Z,6.97
2022-12-13T11:34:30.297Z,6.07
2022-12-13T11:37:19.320Z,6.22
2022-12-13T11:39:53.205Z,5.85
2022-12-13T11:42:44.152Z,7.13
2022-12-13T11:45:34.251Z,4.93
2022-12-13T11:48:17.478Z,6.32
2022-12-13T11:50:48.086Z,4.82
2022-12-13T11:53:23.670Z,6.18
2022-12-13T11:56:00.892Z,6.22
2022-12-13T12:01:27.951Z,6.00
2022-12-13T12:04:20.699Z,5.43
2022-12-13T12:07:24.812Z,5.00
2022-12-13T12:10:12.212Z,6.97
2022-12-13T12:12:44.221Z,5.00
2022-12-13T12:15:41.704Z,7.15
2022-12-13T12:18:15.954Z,6.75
2022-12-13T12:21:07.782Z,5.00
2022-12-13T12:23:52.460Z,4.83
2022-12-13T12:26:26.396Z,5.57
2022-12-13T12:29:20.335Z,5.80
2022-12-13T12:32:16.225Z,6.40
2022-12-13T12:35:10.696Z,5.93
2022-12-13T12:37:53.867Z,5.88
2022-12-13T12:40:52.525Z,5.30
2022-12-13T12:43:28.390Z,5.28
2022-12-13T12:46:16.008Z,5.43
2022-12-13T12:49:00.684Z,4.80
2022-12-13T12:51:52.907Z,7.20
2022-12-13T12:54:43.639Z,5.55
2022-12-13T12:57:21.273Z,5.80
2022-12-13T13:00:01.527Z,5.82
2022-12-13T13:03:01.467Z,5.60
2022-12-13T13:05:55.780Z,4.63
2022-12-13T13:08:29.772Z,5.47
2022-12-13T13:11:01.783Z,5.45
2022-12-13T13:13:48.371Z,5.80
2022-12-13T13:16:27.400Z,6.10
2022-12-13T13:18:55.784Z,5.82
2022-12-13T13:21:32.127Z,4.95
2022-12-13T13:24:01.852Z,5.22
2022-12-13T13:26:35.939Z,4.97
2022-12-13T13:29:27.436Z,5.28
2022-12-13T13:32:29.720Z,6.22
2022-12-13T13:35:28.604Z,4.90
2022-12-13T13:37:56.114Z,5.45
2022-12-13T13:40:39.292Z,5.55
2022-12-13T13:43:08.803Z,4.80
2022-12-13T13:45:57.214Z,5.25
2022-12-13T13:48:36.933Z,6.40
2022-12-13T13:52:01.034Z,7.43
2022-12-13T13:55:01.079Z,8.77
2022-12-13T13:58:08.900Z,7.82
2022-12-13T14:00:58.354Z,6.45
2022-12-13T14:03:41.285Z,6.75
2022-12-13T14:06:33.277Z,6.00
2022-12-13T14:09:18.801Z,9.05
2022-12-13T14:11:58.448Z,8.75
2022-12-13T14:14:49.909Z,10.57
2022-12-13T14:17:25.760Z,8.27
2022-12-13T14:19:56.602Z,7.88
2022-12-13T14:22:35.738Z,8.48
2022-12-13T14:25:30.585Z,10.00
2022-12-13T14:28:15.148Z,12.75
2022-12-13T14:30:48.291Z,13.32
2022-12-13T14:35:55.685Z,13.57
2022-12-13T14:38:25.237Z,14.10
2022-12-13T14:40:55.850Z,19.25
2022-12-13T14:43:29.964Z,28.50
2022-12-13T14:45:59.495Z,21.08
2022-12-13T14:48:29.768Z,20.95
2022-12-13T14:50:57.396Z,24.17
2022-12-13T14:53:27.348Z,23.48
2022-12-13T14:56:27.688Z,26.50
2022-12-13T14:59:00.741Z,26.38
2022-12-13T15:01:32.136Z,25.75
2022-12-13T15:04:23.701Z,22.70
2022-12-13T15:07:06.678Z,17.42
2022-12-13T15:09:39.800Z,18.80
2022-12-13T15:12:15.309Z,21.35
2022-12-13T15:14:57.674Z,16.67
2022-12-13T15:17:31.402Z,16.35
2022-12-13T15:19:58.508Z,14.18
2022-12-13T15:22:29.714Z,14.70
2022-12-13T15:24:58.096Z,13.18
2022-12-13T15:27:25.877Z,13.73
2022-12-13T15:29:54.511Z,15.43
2022-12-13T15:32:24.975Z,15.18
2022-12-13T15:34:52.202Z,16.48
2022-12-13T15:37:29.507Z,16.30
2022-12-13T15:40:07.158Z,15.45
2022-12-13T15:42:37.077Z,14.35
2022-12-13T15:45:16.562Z,15.20
2022-12-13T15:47:47.176Z,13.50
2022-12-13T15:50:37.612Z,14.80
2022-12-13T15:53:19.496Z,13.45
2022-12-13T15:55:46.728Z,14.10
2022-12-13T15:58:31.985Z,15.18
2022-12-13T16:00:58.896Z,14.32
2022-12-13T16:03:27.136Z,15.50
2022-12-13T16:05:56.612Z,15.52
2022-12-13T16:08:33.162Z,17.27
2022-12-13T16:11:00.327Z,15.45
2022-12-13T16:13:29.802Z,14.93
2022-12-13T16:16:00.159Z,16.52
2022-12-13T16:18:45.247Z,41.67
2022-12-13T16:21:12.344Z,17.83
2022-12-13T16:23:38.955Z,16.73
2022-12-13T16:26:08.986Z,18.75
2022-12-13T16:28:36.284Z,18.15
2022-12-13T16:31:19.381Z,19.40
2022-12-13T16:33:46.325Z,20.15
2022-12-13T16:36:13.395Z,17.38
2022-12-13T16:38:40.274Z,25.67
2022-12-13T16:41:09.659Z,38.17
2022-12-13T16:43:49.946Z,38.08
2022-12-13T16:47:17.212Z,65.78
2022-12-13T16:49:18.000Z,68.95
2022-12-13T16:51:48.347Z,68.97
2022-12-13T16:54:16.750Z,72.35
2022-12-13T16:56:43.641Z,65.25
2022-12-13T16:59:15.199Z,80.43
2022-12-13T17:01:43.733Z,70.97
2022-12-13T17:04:19.943Z,55.70
2022-12-13T17:06:48.526Z,49.03
2022-12-13T17:09:15.196Z,43.05
2022-12-13T17:11:42.224Z,41.78
2022-12-13T17:14:09.005Z,41.35
2022-12-13T17:16:35.700Z,33.88
2022-12-13T17:19:02.780Z,37.33
2022-12-13T17:21:30.152Z,40.88
2022-12-13T17:23:58.625Z,39.95
2022-12-13T17:26:26.444Z,39.90
2022-12-13T17:28:53.590Z,40.65
2022-12-13T17:31:20.930Z,48.20
2022-12-13T17:33:48.198Z,44.78
2022-12-13T17:36:16.036Z,52.05
2022-12-13T17:38:47.640Z,39.70
2022-12-13T17:41:15.673Z,36.15
2022-12-13T17:43:43.839Z,36.92
2022-12-13T17:46:15.894Z,32.03
2022-12-13T17:51:11.501Z,32.85
2022-12-13T17:53:43.408Z,37.83
2022-12-13T17:56:12.814Z,39.83
2022-12-13T17:58:40.178Z,38.92
2022-12-13T18:01:22.704Z,36.10
2022-12-13T18:03:52.979Z,35.90
2022-12-13T18:06:20.058Z,34.75
2022-12-13T18:08:46.879Z,35.55
2022-12-13T18:11:32.385Z,38.88
2022-12-13T18:14:00.427Z,42.97
2022-12-13T18:16:35.727Z,39.63
2022-12-13T18:19:06.224Z,34.47
2022-12-13T18:21:33.515Z,37.67
2022-12-13T18:24:00.656Z,39.40
2022-12-13T18:26:27.322Z,38.78
2022-12-13T18:28:53.984Z,37.95
2022-12-13T18:31:23.288Z,35.60
2022-12-13T18:33:51.989Z,34.63
2022-12-13T18:36:20.079Z,33.70
2022-12-13T18:38:46.849Z,32.63
2022-12-13T18:41:19.366Z,32.97
2022-12-13T18:43:46.938Z,34.63
2022-12-13T18:46:18.329Z,33.92
2022-12-13T18:48:49.094Z,32.70
2022-12-13T18:51:16.345Z,34.78
2022-12-13T18:53:43.455Z,35.65
2022-12-13T18:56:18.308Z,37.08
2022-12-13T18:58:46.156Z,35.65
2022-12-13T19:01:14.089Z,37.10
2022-12-13T19:03:44.009Z,39.58
2022-12-13T19:06:16.765Z,38.03
2022-12-13T19:08:43.726Z,39.80
2022-12-13T19:11:11.154Z,35.85
2022-12-13T19:13:37.919Z,32.35
2022-12-13T19:16:08.803Z,36.15
2022-12-13T19:18:38.564Z,32.45
2022-12-13T19:21:10.444Z,33.63
2022-12-13T19:23:37.081Z,34.03
2022-12-13T19:26:09.080Z,32.90
2022-12-13T19:28:36.223Z,32.53
2022-12-13T19:31:06.656Z,29.20
2022-12-13T19:33:34.272Z,28.58
2022-12-13T19:36:03.613Z,30.40
2022-12-13T19:38:30.471Z,28.33
2022-12-13T19:40:59.086Z,27.60
2022-12-13T19:43:26.535Z,29.95
2022-12-13T19:45:53.545Z,30.70
2022-12-13T19:48:20.627Z,28.20
2022-12-13T19:50:47.525Z,37.00
2022-12-13T19:53:14.384Z,35.72
2022-12-13T19:55:45.683Z,35.95
2022-12-13T19:58:15.107Z,36.25
2022-12-13T20:00:41.923Z,37.08
2022-12-13T20:03:09.449Z,33.83
2022-12-13T20:05:36.764Z,33.15
2022-12-13T20:08:03.462Z,32.75
2022-12-13T20:10:31.547Z,29.38
2022-12-13T20:12:58.218Z,33.25
2022-12-13T20:15:25.594Z,34.08
2022-12-13T20:17:52.313Z,31.52
2022-12-13T20:20:20.465Z,37.03
2022-12-13T20:22:48.365Z,33.85
2022-12-13T20:25:17.774Z,30.92
2022-12-13T20:27:44.621Z,35.33
2022-12-13T20:30:13.203Z,34.47
2022-12-13T20:32:39.855Z,36.50
2022-12-13T20:35:07.098Z,34.85
2022-12-13T20:37:33.826Z,31.00
2022-12-13T20:40:00.659Z,32.55
2022-12-13T20:42:27.496Z,34.78
2022-12-13T20:44:54.103Z,37.38
2022-12-13T20:47:20.931Z,37.28
2022-12-13T20:49:48.521Z,33.63
2022-12-13T20:52:19.139Z,30.30
2022-12-13T20:54:45.828Z,31.75
2022-12-13T20:57:12.733Z,31.67
2022-12-13T20:59:39.366Z,29.98
2022-12-13T21:02:06.330Z,30.05
2022-12-13T21:04:33.843Z,30.77
2022-12-13T21:07:02.707Z,28.52
2022-12-13T21:09:29.357Z,30.88
2022-12-13T21:11:56.326Z,30.10
2022-12-13T21:14:28.545Z,34.65
2022-12-13T21:19:26.221Z,32.58
2022-12-13T21:21:54.280Z,33.55
2022-12-13T21:24:23.165Z,31.60
2022-12-13T21:26:51.318Z,32.20
2022-12-13T21:29:18.456Z,32.63
2022-12-13T21:31:49.070Z,31.92
2022-12-13T21:34:16.978Z,35.63
2022-12-13T21:36:45.624Z,35.92
2022-12-13T21:39:13.970Z,30.60
2022-12-13T21:41:41.425Z,31.05
2022-12-13T21:44:10.677Z,31.10
2022-12-13T21:49:24.564Z,35.15
2022-12-13T21:51:51.222Z,29.35
2022-12-13T21:54:17.990Z,28.50
2022-12-13T21:57:03.212Z,28.13
2022-12-13T21:59:30.934Z,26.70
2022-12-13T22:02:11.870Z,27.10
2022-12-13T22:04:56.388Z,29.30
2022-12-13T22:07:32.527Z,31.35
2022-12-13T22:10:01.602Z,33.17
2022-12-13T22:12:33.007Z,34.88
2022-12-13T22:14:59.806Z,33.67
2022-12-13T22:17:34.777Z,33.58
2022-12-13T22:20:04.668Z,33.42
2022-12-13T22:22:31.840Z,32.95
2022-12-13T22:24:58.921Z,35.08
2022-12-13T22:27:26.164Z,34.90
2022-12-13T22:29:56.885Z,33.15
2022-12-13T22:32:25.405Z,35.17
2022-12-13T22:34:52.293Z,36.72
2022-12-13T22:37:19.414Z,35.47
2022-12-13T22:39:46.420Z,36.65
2022-12-13T22:42:13.142Z,36.83
2022-12-13T22:44:40.001Z,36.28
2022-12-13T22:47:07.155Z,36.05
2022-12-13T22:49:34.174Z,36.38
2022-12-13T22:52:00.939Z,37.70
2022-12-13T22:54:27.732Z,38.00
2022-12-13T22:56:54.436Z,39.53
2022-12-13T22:59:21.502Z,36.83
2022-12-13T23:01:48.666Z,38.80
2022-12-13T23:04:16.121Z,39.17
2022-12-13T23:06:42.865Z,38.22
2022-12-13T23:09:13.880Z,37.88
2022-12-13T23:12:01.311Z,36.92
2022-12-13T23:14:33.763Z,36.22
2022-12-13T23:17:02.028Z,36.70
2022-12-13T23:19:51.048Z,36.28
2022-12-13T23:22:16.936Z,36.00
2022-12-13T23:24:43.778Z,35.40
2022-12-13T23:27:10.715Z,35.20
2022-12-13T23:29:37.553Z,35.47
2022-12-13T23:32:04.673Z,33.40
2022-12-13T23:34:31.392Z,34.05
2022-12-13T23:36:58.121Z,32.60
2022-12-13T23:39:24.748Z,34.97
2022-12-13T23:41:51.329Z,34.55
2022-12-13T23:44:18.113Z,33.35
2022-12-13T23:46:48.723Z,34.20
2022-12-13T23:49:16.738Z,32.88
2022-12-13T23:51:43.794Z,33.88
2022-12-13T23:54:14.564Z,35.00
2022-12-13T23:56:41.644Z,33.67
2022-12-13T23:59:08.740Z,34.83
